sensor_id;sensor_type;location;lat;lon;timestamp;P1;durP1;ratioP1;P2;durP2;ratioP2
74679;SDS011;63211;48.548;2.704;2023-02-11T00:01:49;5.07;;;1.65;;
74679;SDS011;63211;48.548;2.704;2023-02-11T00:04:16;3.35;;;1.88;;
74679;SDS011;63211;48.548;2.704;2023-02-11T00:06:42;3.58;;;1.80;;
74679;SDS011;63211;48.548;2.704;2023-02-11T00:09:09;3.42;;;1.80;;
74679;SDS011;63211;48.548;2.704;2023-02-11T00:11:38;3.95;;;2.20;;
74679;SDS011;63211;48.548;2.704;2023-02-11T00:14:05;3.08;;;1.60;;
74679;SDS011;63211;48.548;2.704;2023-02-11T00:16:32;4.22;;;1.85;;
74679;SDS011;63211;48.548;2.704;2023-02-11T00:18:59;2.75;;;1.33;;
74679;SDS011;63211;48.548;2.704;2023-02-11T00:21:28;5.30;;;1.60;;
74679;SDS011;63211;48.548;2.704;2023-02-11T00:23:55;4.05;;;2.00;;
74679;SDS011;63211;48.548;2.704;2023-02-11T00:26:24;3.05;;;1.52;;
74679;SDS011;63211;48.548;2.704;2023-02-11T00:28:54;3.35;;;1.63;;
74679;SDS011;63211;48.548;2.704;2023-02-11T00:31:22;2.80;;;1.75;;
74679;SDS011;63211;48.548;2.704;2023-02-11T00:33:50;3.47;;;1.80;;
74679;SDS011;63211;48.548;2.704;2023-02-11T00:36:17;1.98;;;1.23;;
74679;SDS011;63211;48.548;2.704;2023-02-11T00:38:46;2.72;;;1.67;;
74679;SDS011;63211;48.548;2.704;2023-02-11T00:41:14;3.38;;;1.38;;
74679;SDS011;63211;48.548;2.704;2023-02-11T00:43:41;2.92;;;1.67;;
74679;SDS011;63211;48.548;2.704;2023-02-11T00:46:10;3.05;;;1.52;;
74679;SDS011;63211;48.548;2.704;2023-02-11T00:48:37;2.83;;;1.55;;
74679;SDS011;63211;48.548;2.704;2023-02-11T00:51:04;3.85;;;2.20;;
74679;SDS011;63211;48.548;2.704;2023-02-11T00:53:32;3.78;;;2.00;;
74679;SDS011;63211;48.548;2.704;2023-02-11T00:55:59;4.47;;;1.85;;
74679;SDS011;63211;48.548;2.704;2023-02-11T00:58:26;5.00;;;1.88;;
74679;SDS011;63211;48.548;2.704;2023-02-11T01:00:53;3.72;;;2.03;;
74679;SDS011;63211;48.548;2.704;2023-02-11T01:03:21;3.13;;;2.05;;
74679;SDS011;63211;48.548;2.704;2023-02-11T01:05:47;2.97;;;1.83;;
74679;SDS011;63211;48.548;2.704;2023-02-11T01:08:14;2.90;;;1.75;;
74679;SDS011;63211;48.548;2.704;2023-02-11T01:10:41;3.92;;;1.48;;
74679;SDS011;63211;48.548;2.704;2023-02-11T01:13:08;3.50;;;1.88;;
74679;SDS011;63211;48.548;2.704;2023-02-11T01:15:35;3.83;;;1.67;;
74679;SDS011;63211;48.548;2.704;2023-02-11T01:18:02;3.75;;;2.08;;
74679;SDS011;63211;48.548;2.704;2023-02-11T01:20:31;3.25;;;1.73;;
74679;SDS011;63211;48.548;2.704;2023-02-11T01:22:58;3.35;;;1.67;;
74679;SDS011;63211;48.548;2.704;2023-02-11T01:25:24;3.60;;;2.05;;
74679;SDS011;63211;48.548;2.704;2023-02-11T01:27:51;3.00;;;1.65;;
74679;SDS011;63211;48.548;2.704;2023-02-11T01:30:17;3.85;;;1.90;;
74679;SDS011;63211;48.548;2.704;2023-02-11T01:32:44;3.92;;;1.52;;
74679;SDS011;63211;48.548;2.704;2023-02-11T01:35:11;5.18;;;1.63;;
74679;SDS011;63211;48.548;2.704;2023-02-11T01:37:39;3.38;;;1.77;;
74679;SDS011;63211;48.548;2.704;2023-02-11T01:40:06;3.20;;;1.88;;
74679;SDS011;63211;48.548;2.704;2023-02-11T01:42:37;2.67;;;1.67;;
74679;SDS011;63211;48.548;2.704;2023-02-11T01:48:04;2.75;;;1.70;;
74679;SDS011;63211;48.548;2.704;2023-02-11T01:50:30;3.10;;;1.65;;
74679;SDS011;63211;48.548;2.704;2023-02-11T01:52:58;3.78;;;1.70;;
74679;SDS011;63211;48.548;2.704;2023-02-11T01:55:46;3.25;;;1.88;;
74679;SDS011;63211;48.548;2.704;2023-02-11T01:58:29;3.20;;;1.80;;
74679;SDS011;63211;48.548;2.704;2023-02-11T02:00:58;3.90;;;2.15;;
74679;SDS011;63211;48.548;2.704;2023-02-11T02:03:28;3.40;;;1.55;;
74679;SDS011;63211;48.548;2.704;2023-02-11T02:05:58;4.05;;;2.22;;
74679;SDS011;63211;48.548;2.704;2023-02-11T02:08:33;3.30;;;1.90;;
74679;SDS011;63211;48.548;2.704;2023-02-11T02:11:04;3.88;;;2.00;;
74679;SDS011;63211;48.548;2.704;2023-02-11T02:13:31;2.25;;;1.63;;
74679;SDS011;63211;48.548;2.704;2023-02-11T02:15:59;3.95;;;2.00;;
74679;SDS011;63211;48.548;2.704;2023-02-11T02:18:31;2.95;;;1.52;;
74679;SDS011;63211;48.548;2.704;2023-02-11T02:27:28;3.75;;;1.90;;
74679;SDS011;63211;48.548;2.704;2023-02-11T02:30:15;3.90;;;1.98;;
74679;SDS011;63211;48.548;2.704;2023-02-11T02:36:08;3.63;;;1.73;;
74679;SDS011;63211;48.548;2.704;2023-02-11T02:38:42;3.42;;;1.73;;
74679;SDS011;63211;48.548;2.704;2023-02-11T02:41:16;4.55;;;2.25;;
74679;SDS011;63211;48.548;2.704;2023-02-11T02:43:47;4.05;;;1.63;;
74679;SDS011;63211;48.548;2.704;2023-02-11T02:46:16;3.97;;;1.80;;
74679;SDS011;63211;48.548;2.704;2023-02-11T02:48:46;2.97;;;1.63;;
74679;SDS011;63211;48.548;2.704;2023-02-11T02:51:19;3.72;;;1.75;;
74679;SDS011;63211;48.548;2.704;2023-02-11T02:53:58;3.60;;;1.75;;
74679;SDS011;63211;48.548;2.704;2023-02-11T02:56:47;3.28;;;1.90;;
74679;SDS011;63211;48.548;2.704;2023-02-11T02:59:30;3.30;;;1.77;;
74679;SDS011;63211;48.548;2.704;2023-02-11T03:02:13;3.00;;;1.80;;
74679;SDS011;63211;48.548;2.704;2023-02-11T03:04:49;4.32;;;2.03;;
74679;SDS011;63211;48.548;2.704;2023-02-11T03:07:24;3.80;;;1.80;;
74679;SDS011;63211;48.548;2.704;2023-02-11T03:10:02;3.08;;;2.00;;
74679;SDS011;63211;48.548;2.704;2023-02-11T03:12:34;2.75;;;1.67;;
74679;SDS011;63211;48.548;2.704;2023-02-11T03:15:03;4.60;;;1.90;;
74679;SDS011;63211;48.548;2.704;2023-02-11T03:17:32;4.45;;;2.33;;
74679;SDS011;63211;48.548;2.704;2023-02-11T03:20:02;3.10;;;1.73;;
74679;SDS011;63211;48.548;2.704;2023-02-11T03:22:32;2.83;;;1.83;;
74679;SDS011;63211;48.548;2.704;2023-02-11T03:25:04;4.05;;;1.73;;
74679;SDS011;63211;48.548;2.704;2023-02-11T03:27:32;4.53;;;2.22;;
74679;SDS011;63211;48.548;2.704;2023-02-11T03:30:04;3.28;;;1.77;;
74679;SDS011;63211;48.548;2.704;2023-02-11T03:32:37;3.42;;;1.98;;
74679;SDS011;63211;48.548;2.704;2023-02-11T03:35:09;4.13;;;2.10;;
74679;SDS011;63211;48.548;2.704;2023-02-11T03:37:41;3.38;;;1.65;;
74679;SDS011;63211;48.548;2.704;2023-02-11T03:40:13;4.35;;;2.10;;
74679;SDS011;63211;48.548;2.704;2023-02-11T03:42:42;2.33;;;1.58;;
74679;SDS011;63211;48.548;2.704;2023-02-11T03:45:14;3.75;;;1.88;;
74679;SDS011;63211;48.548;2.704;2023-02-11T03:52:42;2.70;;;1.67;;
74679;SDS011;63211;48.548;2.704;2023-02-11T03:55:10;3.45;;;1.98;;
74679;SDS011;63211;48.548;2.704;2023-02-11T03:57:40;4.40;;;1.92;;
74679;SDS011;63211;48.548;2.704;2023-02-11T04:00:08;3.33;;;2.28;;
74679;SDS011;63211;48.548;2.704;2023-02-11T04:02:36;3.22;;;2.03;;
74679;SDS011;63211;48.548;2.704;2023-02-11T04:05:03;3.08;;;1.73;;
74679;SDS011;63211;48.548;2.704;2023-02-11T04:07:33;3.30;;;1.88;;
74679;SDS011;63211;48.548;2.704;2023-02-11T04:10:00;4.70;;;2.20;;
74679;SDS011;63211;48.548;2.704;2023-02-11T04:12:26;4.20;;;2.35;;
74679;SDS011;63211;48.548;2.704;2023-02-11T04:14:53;3.03;;;1.55;;
74679;SDS011;63211;48.548;2.704;2023-02-11T04:17:20;3.83;;;2.08;;
74679;SDS011;63211;48.548;2.704;2023-02-11T04:19:46;3.20;;;1.73;;
74679;SDS011;63211;48.548;2.704;2023-02-11T04:22:13;3.05;;;1.95;;
74679;SDS011;63211;48.548;2.704;2023-02-11T04:24:41;3.22;;;2.00;;
74679;SDS011;63211;48.548;2.704;2023-02-11T04:27:08;3.92;;;1.90;;
74679;SDS011;63211;48.548;2.704;2023-02-11T04:29:34;3.72;;;2.03;;
74679;SDS011;63211;48.548;2.704;2023-02-11T04:32:01;3.17;;;2.10;;
74679;SDS011;63211;48.548;2.704;2023-02-11T04:34:28;3.40;;;1.95;;
74679;SDS011;63211;48.548;2.704;2023-02-11T04:36:55;4.40;;;1.98;;
74679;SDS011;63211;48.548;2.704;2023-02-11T04:39:21;2.72;;;1.63;;
74679;SDS011;63211;48.548;2.704;2023-02-11T04:41:49;2.85;;;1.58;;
74679;SDS011;63211;48.548;2.704;2023-02-11T04:44:16;4.40;;;1.92;;
74679;SDS011;63211;48.548;2.704;2023-02-11T04:46:43;3.20;;;2.00;;
74679;SDS011;63211;48.548;2.704;2023-02-11T04:49:10;2.60;;;1.60;;
74679;SDS011;63211;48.548;2.704;2023-02-11T04:51:39;4.05;;;2.03;;
74679;SDS011;63211;48.548;2.704;2023-02-11T04:54:06;3.47;;;1.80;;
74679;SDS011;63211;48.548;2.704;2023-02-11T04:56:33;3.53;;;1.80;;
74679;SDS011;63211;48.548;2.704;2023-02-11T04:59:01;3.72;;;1.85;;
74679;SDS011;63211;48.548;2.704;2023-02-11T05:01:28;3.05;;;1.90;;
74679;SDS011;63211;48.548;2.704;2023-02-11T05:03:55;2.55;;;1.42;;
74679;SDS011;63211;48.548;2.704;2023-02-11T05:06:21;4.03;;;1.85;;
74679;SDS011;63211;48.548;2.704;2023-02-11T05:08:48;3.60;;;2.10;;
74679;SDS011;63211;48.548;2.704;2023-02-11T05:11:16;3.05;;;1.60;;
74679;SDS011;63211;48.548;2.704;2023-02-11T05:13:45;3.38;;;1.63;;
74679;SDS011;63211;48.548;2.704;2023-02-11T05:16:13;4.40;;;2.35;;
74679;SDS011;63211;48.548;2.704;2023-02-11T05:18:41;4.53;;;2.15;;
74679;SDS011;63211;48.548;2.704;2023-02-11T05:21:09;3.75;;;2.33;;
74679;SDS011;63211;48.548;2.704;2023-02-11T05:23:37;3.30;;;1.88;;
74679;SDS011;63211;48.548;2.704;2023-02-11T05:26:04;3.58;;;2.00;;
74679;SDS011;63211;48.548;2.704;2023-02-11T05:28:31;4.88;;;1.95;;
74679;SDS011;63211;48.548;2.704;2023-02-11T05:30:59;3.13;;;1.80;;
74679;SDS011;63211;48.548;2.704;2023-02-11T05:33:27;3.30;;;2.13;;
74679;SDS011;63211;48.548;2.704;2023-02-11T05:35:56;3.10;;;1.95;;
74679;SDS011;63211;48.548;2.704;2023-02-11T05:38:23;3.08;;;1.92;;
74679;SDS011;63211;48.548;2.704;2023-02-11T05:40:50;3.65;;;1.70;;
74679;SDS011;63211;48.548;2.704;2023-02-11T05:43:17;3.28;;;1.90;;
74679;SDS011;63211;48.548;2.704;2023-02-11T05:45:43;4.78;;;2.25;;
74679;SDS011;63211;48.548;2.704;2023-02-11T05:48:10;4.10;;;2.05;;
74679;SDS011;63211;48.548;2.704;2023-02-11T05:50:38;3.60;;;1.92;;
74679;SDS011;63211;48.548;2.704;2023-02-11T05:53:05;3.25;;;2.08;;
74679;SDS011;63211;48.548;2.704;2023-02-11T05:55:32;4.88;;;2.15;;
74679;SDS011;63211;48.548;2.704;2023-02-11T05:57:58;4.43;;;2.13;;
74679;SDS011;63211;48.548;2.704;2023-02-11T06:00:26;4.15;;;2.05;;
74679;SDS011;63211;48.548;2.704;2023-02-11T06:02:53;3.67;;;1.90;;
74679;SDS011;63211;48.548;2.704;2023-02-11T06:05:19;3.25;;;1.90;;
74679;SDS011;63211;48.548;2.704;2023-02-11T06:07:47;3.42;;;1.90;;
74679;SDS011;63211;48.548;2.704;2023-02-11T06:10:14;2.47;;;1.75;;
74679;SDS011;63211;48.548;2.704;2023-02-11T06:12:41;3.08;;;1.90;;
74679;SDS011;63211;48.548;2.704;2023-02-11T06:15:08;5.35;;;2.20;;
74679;SDS011;63211;48.548;2.704;2023-02-11T06:17:36;4.20;;;1.90;;
74679;SDS011;63211;48.548;2.704;2023-02-11T06:20:03;3.95;;;2.05;;
74679;SDS011;63211;48.548;2.704;2023-02-11T06:22:31;3.45;;;1.70;;
74679;SDS011;63211;48.548;2.704;2023-02-11T06:24:59;3.85;;;1.92;;
74679;SDS011;63211;48.548;2.704;2023-02-11T06:27:26;4.35;;;1.73;;
74679;SDS011;63211;48.548;2.704;2023-02-11T06:29:53;4.28;;;2.22;;
74679;SDS011;63211;48.548;2.704;2023-02-11T06:32:19;3.17;;;1.98;;
74679;SDS011;63211;48.548;2.704;2023-02-11T06:34:46;4.28;;;2.10;;
74679;SDS011;63211;48.548;2.704;2023-02-11T06:37:13;3.10;;;2.28;;
74679;SDS011;63211;48.548;2.704;2023-02-11T06:39:39;3.67;;;2.08;;
74679;SDS011;63211;48.548;2.704;2023-02-11T06:42:07;3.40;;;2.17;;
74679;SDS011;63211;48.548;2.704;2023-02-11T06:44:34;4.65;;;2.67;;
74679;SDS011;63211;48.548;2.704;2023-02-11T06:47:01;3.95;;;2.00;;
74679;SDS011;63211;48.548;2.704;2023-02-11T06:49:28;3.63;;;1.95;;
74679;SDS011;63211;48.548;2.704;2023-02-11T06:51:54;4.20;;;2.10;;
74679;SDS011;63211;48.548;2.704;2023-02-11T06:54:21;4.63;;;2.22;;
74679;SDS011;63211;48.548;2.704;2023-02-11T06:56:48;3.10;;;2.00;;
74679;SDS011;63211;48.548;2.704;2023-02-11T06:59:16;4.35;;;2.50;;
74679;SDS011;63211;48.548;2.704;2023-02-11T07:01:44;4.43;;;2.53;;
74679;SDS011;63211;48.548;2.704;2023-02-11T07:04:11;3.70;;;2.30;;
74679;SDS011;63211;48.548;2.704;2023-02-11T07:06:38;3.78;;;2.00;;
74679;SDS011;63211;48.548;2.704;2023-02-11T07:09:05;4.03;;;2.30;;
74679;SDS011;63211;48.548;2.704;2023-02-11T07:11:33;3.28;;;1.95;;
74679;SDS011;63211;48.548;2.704;2023-02-11T07:14:00;4.28;;;2.08;;
74679;SDS011;63211;48.548;2.704;2023-02-11T07:16:29;4.97;;;2.40;;
74679;SDS011;63211;48.548;2.704;2023-02-11T07:18:57;3.45;;;2.20;;
74679;SDS011;63211;48.548;2.704;2023-02-11T07:21:23;3.92;;;1.98;;
74679;SDS011;63211;48.548;2.704;2023-02-11T07:23:50;4.55;;;2.15;;
74679;SDS011;63211;48.548;2.704;2023-02-11T07:26:18;4.53;;;2.13;;
74679;SDS011;63211;48.548;2.704;2023-02-11T07:28:47;4.80;;;2.50;;
74679;SDS011;63211;48.548;2.704;2023-02-11T07:31:16;4.82;;;2.42;;
74679;SDS011;63211;48.548;2.704;2023-02-11T07:33:45;4.00;;;2.05;;
74679;SDS011;63211;48.548;2.704;2023-02-11T07:36:13;3.47;;;2.35;;
74679;SDS011;63211;48.548;2.704;2023-02-11T07:38:40;3.30;;;2.28;;
74679;SDS011;63211;48.548;2.704;2023-02-11T07:41:08;4.18;;;2.17;;
74679;SDS011;63211;48.548;2.704;2023-02-11T07:43:37;3.90;;;2.33;;
74679;SDS011;63211;48.548;2.704;2023-02-11T07:46:04;4.30;;;2.30;;
74679;SDS011;63211;48.548;2.704;2023-02-11T07:48:33;3.55;;;2.53;;
74679;SDS011;63211;48.548;2.704;2023-02-11T07:51:08;5.40;;;2.17;;
74679;SDS011;63211;48.548;2.704;2023-02-11T07:53:36;3.38;;;2.05;;
74679;SDS011;63211;48.548;2.704;2023-02-11T07:56:03;3.60;;;2.20;;
74679;SDS011;63211;48.548;2.704;2023-02-11T07:58:31;4.95;;;2.47;;
74679;SDS011;63211;48.548;2.704;2023-02-11T08:00:59;4.93;;;2.50;;
74679;SDS011;63211;48.548;2.704;2023-02-11T08:03:27;4.13;;;2.30;;
74679;SDS011;63211;48.548;2.704;2023-02-11T08:05:54;4.68;;;2.50;;
74679;SDS011;63211;48.548;2.704;2023-02-11T08:08:22;4.78;;;2.60;;
74679;SDS011;63211;48.548;2.704;2023-02-11T08:10:51;4.72;;;2.65;;
74679;SDS011;63211;48.548;2.704;2023-02-11T08:13:18;4.25;;;2.50;;
74679;SDS011;63211;48.548;2.704;2023-02-11T08:15:44;3.92;;;2.17;;
74679;SDS011;63211;48.548;2.704;2023-02-11T08:18:11;3.85;;;2.05;;
74679;SDS011;63211;48.548;2.704;2023-02-11T08:20:37;5.35;;;2.33;;
74679;SDS011;63211;48.548;2.704;2023-02-11T08:23:05;4.25;;;2.50;;
74679;SDS011;63211;48.548;2.704;2023-02-11T08:25:33;3.75;;;2.00;;
74679;SDS011;63211;48.548;2.704;2023-02-11T08:28:00;4.53;;;2.38;;
74679;SDS011;63211;48.548;2.704;2023-02-11T08:30:26;3.97;;;2.35;;
74679;SDS011;63211;48.548;2.704;2023-02-11T08:32:53;3.92;;;2.22;;
74679;SDS011;63211;48.548;2.704;2023-02-11T08:35:20;4.43;;;2.75;;
74679;SDS011;63211;48.548;2.704;2023-02-11T08:37:47;4.25;;;2.50;;
74679;SDS011;63211;48.548;2.704;2023-02-11T08:40:13;4.85;;;2.78;;
74679;SDS011;63211;48.548;2.704;2023-02-11T08:42:41;6.18;;;2.83;;
74679;SDS011;63211;48.548;2.704;2023-02-11T08:45:08;4.30;;;2.95;;
74679;SDS011;63211;48.548;2.704;2023-02-11T08:47:36;8.18;;;3.38;;
74679;SDS011;63211;48.548;2.704;2023-02-11T08:50:03;5.60;;;2.70;;
74679;SDS011;63211;48.548;2.704;2023-02-11T08:52:30;6.35;;;3.00;;
74679;SDS011;63211;48.548;2.704;2023-02-11T08:54:57;7.63;;;3.20;;
74679;SDS011;63211;48.548;2.704;2023-02-11T08:57:24;7.28;;;3.25;;
74679;SDS011;63211;48.548;2.704;2023-02-11T08:59:52;5.63;;;3.38;;
74679;SDS011;63211;48.548;2.704;2023-02-11T09:02:18;6.45;;;3.50;;
74679;SDS011;63211;48.548;2.704;2023-02-11T09:04:45;7.20;;;3.75;;
74679;SDS011;63211;48.548;2.704;2023-02-11T09:07:11;6.05;;;3.50;;
74679;SDS011;63211;48.548;2.704;2023-02-11T09:09:38;8.13;;;4.28;;
74679;SDS011;63211;48.548;2.704;2023-02-11T09:12:05;7.90;;;4.25;;
74679;SDS011;63211;48.548;2.704;2023-02-11T09:14:31;8.32;;;4.45;;
74679;SDS011;63211;48.548;2.704;2023-02-11T09:16:59;8.07;;;3.97;;
74679;SDS011;63211;48.548;2.704;2023-02-11T09:19:26;7.05;;;4.20;;
74679;SDS011;63211;48.548;2.704;2023-02-11T09:21:53;7.40;;;3.88;;
74679;SDS011;63211;48.548;2.704;2023-02-11T09:24:19;6.80;;;3.80;;
74679;SDS011;63211;48.548;2.704;2023-02-11T09:26:46;5.95;;;3.60;;
74679;SDS011;63211;48.548;2.704;2023-02-11T09:29:13;9.13;;;5.10;;
74679;SDS011;63211;48.548;2.704;2023-02-11T09:31:40;8.93;;;4.35;;
74679;SDS011;63211;48.548;2.704;2023-02-11T09:34:09;13.48;;;7.72;;
74679;SDS011;63211;48.548;2.704;2023-02-11T09:36:37;9.45;;;7.10;;
74679;SDS011;63211;48.548;2.704;2023-02-11T09:39:04;18.42;;;13.98;;
74679;SDS011;63211;48.548;2.704;2023-02-11T09:41:48;11.25;;;5.68;;
74679;SDS011;63211;48.548;2.704;2023-02-11T09:44:33;9.20;;;6.57;;
74679;SDS011;63211;48.548;2.704;2023-02-11T09:47:02;10.02;;;5.50;;
74679;SDS011;63211;48.548;2.704;2023-02-11T09:49:33;10.25;;;6.32;;
74679;SDS011;63211;48.548;2.704;2023-02-11T09:52:07;8.18;;;5.45;;
74679;SDS011;63211;48.548;2.704;2023-02-11T09:54:44;6.82;;;4.60;;
74679;SDS011;63211;48.548;2.704;2023-02-11T09:57:19;9.45;;;4.68;;
74679;SDS011;63211;48.548;2.704;2023-02-11T09:59:46;11.18;;;4.72;;
74679;SDS011;63211;48.548;2.704;2023-02-11T10:02:15;16.67;;;5.65;;
74679;SDS011;63211;48.548;2.704;2023-02-11T10:04:56;9.43;;;4.70;;
74679;SDS011;63211;48.548;2.704;2023-02-11T10:10:11;8.35;;;5.13;;
74679;SDS011;63211;48.548;2.704;2023-02-11T10:12:51;11.07;;;5.63;;
74679;SDS011;63211;48.548;2.704;2023-02-11T10:15:32;9.27;;;5.32;;
74679;SDS011;63211;48.548;2.704;2023-02-11T10:18:29;9.15;;;5.20;;
74679;SDS011;63211;48.548;2.704;2023-02-11T10:21:11;9.88;;;4.97;;
74679;SDS011;63211;48.548;2.704;2023-02-11T10:23:45;9.60;;;5.97;;
74679;SDS011;63211;48.548;2.704;2023-02-11T10:26:17;10.15;;;6.15;;
74679;SDS011;63211;48.548;2.704;2023-02-11T10:28:45;9.93;;;5.93;;
74679;SDS011;63211;48.548;2.704;2023-02-11T10:31:13;10.98;;;6.15;;
74679;SDS011;63211;48.548;2.704;2023-02-11T10:33:44;8.07;;;5.75;;
74679;SDS011;63211;48.548;2.704;2023-02-11T10:36:16;12.15;;;6.60;;
74679;SDS011;63211;48.548;2.704;2023-02-11T10:38:44;11.65;;;6.68;;
74679;SDS011;63211;48.548;2.704;2023-02-11T10:41:12;12.38;;;6.68;;
74679;SDS011;63211;48.548;2.704;2023-02-11T10:43:42;10.55;;;6.28;;
74679;SDS011;63211;48.548;2.704;2023-02-11T10:46:11;11.02;;;5.88;;
74679;SDS011;63211;48.548;2.704;2023-02-11T10:48:43;15.68;;;5.88;;
74679;SDS011;63211;48.548;2.704;2023-02-11T10:51:18;9.63;;;5.68;;
74679;SDS011;63211;48.548;2.704;2023-02-11T10:53:47;8.35;;;5.25;;
74679;SDS011;63211;48.548;2.704;2023-02-11T10:56:19;12.55;;;5.82;;
74679;SDS011;63211;48.548;2.704;2023-02-11T10:58:59;7.63;;;4.43;;
74679;SDS011;63211;48.548;2.704;2023-02-11T11:01:37;8.63;;;5.07;;
74679;SDS011;63211;48.548;2.704;2023-02-11T11:04:06;8.38;;;4.70;;
74679;SDS011;63211;48.548;2.704;2023-02-11T11:06:53;7.53;;;4.57;;
74679;SDS011;63211;48.548;2.704;2023-02-11T11:09:26;7.88;;;4.65;;
74679;SDS011;63211;48.548;2.704;2023-02-11T11:11:54;8.00;;;4.25;;
74679;SDS011;63211;48.548;2.704;2023-02-11T11:14:21;7.47;;;4.43;;
74679;SDS011;63211;48.548;2.704;2023-02-11T11:16:53;7.30;;;4.00;;
74679;SDS011;63211;48.548;2.704;2023-02-11T11:19:21;9.07;;;4.55;;
74679;SDS011;63211;48.548;2.704;2023-02-11T11:21:49;8.50;;;4.78;;
74679;SDS011;63211;48.548;2.704;2023-02-11T11:24:20;5.72;;;3.75;;
74679;SDS011;63211;48.548;2.704;2023-02-11T11:26:48;6.32;;;3.53;;
74679;SDS011;63211;48.548;2.704;2023-02-11T11:29:17;6.10;;;3.80;;
74679;SDS011;63211;48.548;2.704;2023-02-11T11:31:48;7.40;;;3.35;;
74679;SDS011;63211;48.548;2.704;2023-02-11T11:34:22;5.97;;;3.47;;
74679;SDS011;63211;48.548;2.704;2023-02-11T11:36:53;5.25;;;2.92;;
74679;SDS011;63211;48.548;2.704;2023-02-11T11:39:23;5.60;;;3.17;;
74679;SDS011;63211;48.548;2.704;2023-02-11T11:41:54;5.50;;;3.33;;
74679;SDS011;63211;48.548;2.704;2023-02-11T11:44:24;6.13;;;3.78;;
74679;SDS011;63211;48.548;2.704;2023-02-11T11:47:06;5.55;;;3.05;;
74679;SDS011;63211;48.548;2.704;2023-02-11T11:49:47;6.43;;;3.58;;
74679;SDS011;63211;48.548;2.704;2023-02-11T11:52:18;7.82;;;3.72;;
74679;SDS011;63211;48.548;2.704;2023-02-11T11:54:58;5.78;;;3.67;;
74679;SDS011;63211;48.548;2.704;2023-02-11T11:57:28;6.35;;;3.60;;
74679;SDS011;63211;48.548;2.704;2023-02-11T11:59:58;5.38;;;3.25;;
74679;SDS011;63211;48.548;2.704;2023-02-11T12:02:38;5.78;;;2.67;;
74679;SDS011;63211;48.548;2.704;2023-02-11T12:05:17;5.63;;;2.92;;
74679;SDS011;63211;48.548;2.704;2023-02-11T12:07:53;4.45;;;2.75;;
74679;SDS011;63211;48.548;2.704;2023-02-11T12:10:55;5.93;;;3.35;;
74679;SDS011;63211;48.548;2.704;2023-02-11T12:13:34;5.28;;;3.33;;
74679;SDS011;63211;48.548;2.704;2023-02-11T12:16:15;7.47;;;3.00;;
74679;SDS011;63211;48.548;2.704;2023-02-11T12:19:02;4.95;;;3.00;;
74679;SDS011;63211;48.548;2.704;2023-02-11T12:21:45;5.22;;;3.25;;
74679;SDS011;63211;48.548;2.704;2023-02-11T12:24:25;6.93;;;2.45;;
74679;SDS011;63211;48.548;2.704;2023-02-11T12:27:05;4.38;;;2.33;;
74679;SDS011;63211;48.548;2.704;2023-02-11T12:29:39;4.50;;;2.47;;
74679;SDS011;63211;48.548;2.704;2023-02-11T12:32:19;6.18;;;2.75;;
74679;SDS011;63211;48.548;2.704;2023-02-11T12:34:56;4.30;;;2.45;;
74679;SDS011;63211;48.548;2.704;2023-02-11T12:37:44;5.50;;;3.00;;
74679;SDS011;63211;48.548;2.704;2023-02-11T12:40:25;4.15;;;2.10;;
74679;SDS011;63211;48.548;2.704;2023-02-11T12:43:02;4.20;;;2.20;;
74679;SDS011;63211;48.548;2.704;2023-02-11T12:45:45;3.83;;;2.03;;
74679;SDS011;63211;48.548;2.704;2023-02-11T12:48:29;5.53;;;2.10;;
74679;SDS011;63211;48.548;2.704;2023-02-11T12:51:11;4.22;;;1.67;;
74679;SDS011;63211;48.548;2.704;2023-02-11T12:53:59;3.33;;;1.85;;
74679;SDS011;63211;48.548;2.704;2023-02-11T12:56:42;3.15;;;2.15;;
74679;SDS011;63211;48.548;2.704;2023-02-11T12:59:18;3.05;;;1.70;;
74679;SDS011;63211;48.548;2.704;2023-02-11T13:01:53;3.33;;;1.75;;
74679;SDS011;63211;48.548;2.704;2023-02-11T13:04:23;3.15;;;1.73;;
74679;SDS011;63211;48.548;2.704;2023-02-11T13:06:54;2.58;;;1.60;;
74679;SDS011;63211;48.548;2.704;2023-02-11T13:09:26;3.10;;;1.58;;
74679;SDS011;63211;48.548;2.704;2023-02-11T13:12:01;4.30;;;1.70;;
74679;SDS011;63211;48.548;2.704;2023-02-11T13:14:53;3.03;;;1.40;;
74679;SDS011;63211;48.548;2.704;2023-02-11T13:17:25;2.88;;;1.40;;
74679;SDS011;63211;48.548;2.704;2023-02-11T13:19:57;2.45;;;1.40;;
74679;SDS011;63211;48.548;2.704;2023-02-11T13:22:27;2.50;;;1.58;;
74679;SDS011;63211;48.548;2.704;2023-02-11T13:25:01;2.03;;;1.23;;
74679;SDS011;63211;48.548;2.704;2023-02-11T13:27:32;1.48;;;0.85;;
74679;SDS011;63211;48.548;2.704;2023-02-11T13:30:24;2.28;;;1.45;;
74679;SDS011;63211;48.548;2.704;2023-02-11T13:35:47;1.85;;;1.17;;
74679;SDS011;63211;48.548;2.704;2023-02-11T13:38:34;3.00;;;1.60;;
74679;SDS011;63211;48.548;2.704;2023-02-11T13:41:03;2.20;;;0.80;;
74679;SDS011;63211;48.548;2.704;2023-02-11T13:43:31;2.10;;;1.10;;
74679;SDS011;63211;48.548;2.704;2023-02-11T13:46:02;1.42;;;0.93;;
74679;SDS011;63211;48.548;2.704;2023-02-11T13:48:31;1.70;;;1.00;;
74679;SDS011;63211;48.548;2.704;2023-02-11T13:51:00;1.80;;;0.90;;
74679;SDS011;63211;48.548;2.704;2023-02-11T13:53:28;1.42;;;0.80;;
74679;SDS011;63211;48.548;2.704;2023-02-11T13:56:11;1.33;;;0.73;;
74679;SDS011;63211;48.548;2.704;2023-02-11T13:58:48;1.75;;;1.00;;
74679;SDS011;63211;48.548;2.704;2023-02-11T14:04:35;2.17;;;0.90;;
74679;SDS011;63211;48.548;2.704;2023-02-11T14:07:26;1.85;;;0.88;;
74679;SDS011;63211;48.548;2.704;2023-02-11T14:13:25;1.70;;;0.80;;
74679;SDS011;63211;48.548;2.704;2023-02-11T14:16:02;1.05;;;0.68;;
74679;SDS011;63211;48.548;2.704;2023-02-11T14:18:35;1.20;;;0.57;;
74679;SDS011;63211;48.548;2.704;2023-02-11T14:21:21;1.20;;;0.68;;
74679;SDS011;63211;48.548;2.704;2023-02-11T14:27:12;2.78;;;0.88;;
74679;SDS011;63211;48.548;2.704;2023-02-11T14:29:48;1.95;;;0.88;;
74679;SDS011;63211;48.548;2.704;2023-02-11T14:32:32;2.00;;;0.63;;
74679;SDS011;63211;48.548;2.704;2023-02-11T14:35:06;1.77;;;0.68;;
74679;SDS011;63211;48.548;2.704;2023-02-11T14:37:41;2.28;;;0.77;;
74679;SDS011;63211;48.548;2.704;2023-02-11T14:40:16;1.70;;;0.60;;
74679;SDS011;63211;48.548;2.704;2023-02-11T14:45:19;1.60;;;0.75;;
74679;SDS011;63211;48.548;2.704;2023-02-11T14:47:50;1.73;;;0.93;;
74679;SDS011;63211;48.548;2.704;2023-02-11T14:50:24;1.75;;;0.80;;
74679;SDS011;63211;48.548;2.704;2023-02-11T14:52:54;2.60;;;0.90;;
74679;SDS011;63211;48.548;2.704;2023-02-11T14:55:26;2.60;;;1.00;;
74679;SDS011;63211;48.548;2.704;2023-02-11T14:58:06;8.20;;;1.17;;
74679;SDS011;63211;48.548;2.704;2023-02-11T15:00:45;1.92;;;0.90;;
74679;SDS011;63211;48.548;2.704;2023-02-11T15:03:23;1.58;;;1.05;;
74679;SDS011;63211;48.548;2.704;2023-02-11T15:05:52;2.33;;;1.00;;
74679;SDS011;63211;48.548;2.704;2023-02-11T15:08:22;2.20;;;0.75;;
74679;SDS011;63211;48.548;2.704;2023-02-11T15:10:49;2.20;;;1.00;;
74679;SDS011;63211;48.548;2.704;2023-02-11T15:13:17;2.08;;;0.90;;
74679;SDS011;63211;48.548;2.704;2023-02-11T15:15:45;2.17;;;0.70;;
74679;SDS011;63211;48.548;2.704;2023-02-11T15:18:15;2.05;;;1.00;;
74679;SDS011;63211;48.548;2.704;2023-02-11T15:20:46;1.75;;;0.88;;
74679;SDS011;63211;48.548;2.704;2023-02-11T15:23:16;2.20;;;1.08;;
74679;SDS011;63211;48.548;2.704;2023-02-11T15:25:49;2.03;;;1.00;;
74679;SDS011;63211;48.548;2.704;2023-02-11T15:28:20;1.77;;;1.00;;
74679;SDS011;63211;48.548;2.704;2023-02-11T15:30:55;1.45;;;0.95;;
74679;SDS011;63211;48.548;2.704;2023-02-11T15:33:23;1.73;;;0.88;;
74679;SDS011;63211;48.548;2.704;2023-02-11T15:35:50;2.70;;;1.20;;
74679;SDS011;63211;48.548;2.704;2023-02-11T15:38:17;2.08;;;1.00;;
74679;SDS011;63211;48.548;2.704;2023-02-11T15:40:51;2.20;;;0.95;;
74679;SDS011;63211;48.548;2.704;2023-02-11T15:43:20;1.63;;;0.90;;
74679;SDS011;63211;48.548;2.704;2023-02-11T15:45:53;3.33;;;1.02;;